createdAt,value
2022-08-09T00:00:17.806Z,62.0
2022-08-09T00:01:19.322Z,62.1
2022-08-09T00:02:16.954Z,62.1
2022-08-09T00:04:01.045Z,62.5
2022-08-09T00:04:34.040Z,62.6
2022-08-09T00:06:17.037Z,62.7
2022-08-09T00:06:23.680Z,62.9
2022-08-09T00:07:17.419Z,62.9
2022-08-09T00:08:32.717Z,63.1
2022-08-09T00:09:21.131Z,63.1
2022-08-09T00:10:24.711Z,62.9
2022-08-09T00:11:25.550Z,63.1
2022-08-09T00:12:29.756Z,63.5
2022-08-09T00:13:18.384Z,63.3
2022-08-09T00:14:21.892Z,63.2
2022-08-09T00:15:16.708Z,63.1
2022-08-09T00:16:36.516Z,63.2
2022-08-09T00:18:04.948Z,63.3
2022-08-09T00:18:19.014Z,63.6
2022-08-09T00:19:18.708Z,63.4
2022-08-09T00:20:17.680Z,63.2
2022-08-09T00:21:17.545Z,63.4
2022-08-09T00:22:18.370Z,63.4
2022-08-09T00:23:54.379Z,63.4
2022-08-09T00:24:20.010Z,63.2
2022-08-09T00:25:31.998Z,63.2
2022-08-09T00:26:18.343Z,63.1
2022-08-09T00:27:16.808Z,63.4
2022-08-09T00:28:17.619Z,63.8
2022-08-09T00:29:40.059Z,63.7
2022-08-09T00:30:27.174Z,64.1
2022-08-09T00:31:30.913Z,64.2
2022-08-09T00:32:27.403Z,64.3
2022-08-09T00:33:16.861Z,64.2
2022-08-09T00:34:19.841Z,64.1
2022-08-09T00:35:17.424Z,64.1
2022-08-09T00:36:16.860Z,64.0
2022-08-09T00:37:17.311Z,63.7
2022-08-09T00:38:21.661Z,63.7
2022-08-09T00:40:10.476Z,63.6
2022-08-09T00:40:19.990Z,63.6
2022-08-09T00:44:08.659Z,63.6
2022-08-09T00:44:09.164Z,63.7
2022-08-09T00:44:18.834Z,63.5
2022-08-09T00:44:28.551Z,63.5
2022-08-09T00:45:20.423Z,63.1
2022-08-09T00:46:55.383Z,62.9
2022-08-09T00:47:19.965Z,62.8
2022-08-09T00:48:19.639Z,63.0
2022-08-09T00:49:20.669Z,63.4
2022-08-09T00:50:16.462Z,63.6
2022-08-09T00:51:17.701Z,63.7
2022-08-09T00:52:18.077Z,63.5
2022-08-09T00:53:24.515Z,63.5
2022-08-09T00:54:17.654Z,63.6
2022-08-09T00:55:33.091Z,63.6
2022-08-09T00:56:16.628Z,63.6
2022-08-09T00:57:33.634Z,63.4
2022-08-09T00:58:27.751Z,63.4
2022-08-09T00:59:31.721Z,63.5
2022-08-09T01:00:23.606Z,64.0
2022-08-09T01:01:17.298Z,64.5
2022-08-09T01:02:18.159Z,64.5
2022-08-09T01:03:17.076Z,64.3
2022-08-09T01:04:16.500Z,64.0
2022-08-09T01:05:22.396Z,64.0
2022-08-09T01:06:18.612Z,64.0
2022-08-09T01:07:17.141Z,64.1
2022-08-09T01:08:16.669Z,64.4
2022-08-09T01:09:17.402Z,64.6
2022-08-09T01:10:16.907Z,65.3
2022-08-09T01:11:16.850Z,65.4
2022-08-09T01:12:16.543Z,65.5
2022-08-09T01:13:22.474Z,65.6
2022-08-09T01:14:19.609Z,65.6
2022-08-09T01:15:17.901Z,65.6
2022-08-09T01:16:17.191Z,65.8
2022-08-09T01:17:18.106Z,65.8
2022-08-09T01:18:30.043Z,65.8
2022-08-09T01:19:40.367Z,65.9
2022-08-09T01:20:17.997Z,65.9
2022-08-09T01:21:16.440Z,65.6
2022-08-09T01:22:17.029Z,65.5
2022-08-09T01:24:01.382Z,65.8
2022-08-09T01:24:16.991Z,66.4
2022-08-09T01:25:19.384Z,66.6
2022-08-09T01:26:17.466Z,67.0
2022-08-09T01:27:18.014Z,67.2
2022-08-09T01:28:16.464Z,67.2
2022-08-09T01:29:17.617Z,67.2
2022-08-09T01:30:35.613Z,67.0
2022-08-09T01:32:29.090Z,67.1
2022-08-09T01:32:32.356Z,66.9
2022-08-09T01:33:16.658Z,66.9
2022-08-09T01:34:18.248Z,66.8
2022-08-09T01:35:38.215Z,66.7
2022-08-09T01:36:17.402Z,66.8
2022-08-09T01:37:43.063Z,66.8
2022-08-09T01:38:18.244Z,66.7
2022-08-09T01:39:16.599Z,66.9
2022-08-09T01:40:28.746Z,66.9
2022-08-09T01:41:17.213Z,67.1
2022-08-09T01:42:16.670Z,67.2
2022-08-09T01:43:18.389Z,67.4
2022-08-09T01:44:19.761Z,67.4
2022-08-09T01:45:16.689Z,67.6
2022-08-09T01:46:26.726Z,67.6
2022-08-09T01:47:17.633Z,67.4
2022-08-09T01:48:17.356Z,67.1
2022-08-09T01:49:17.091Z,67.1
2022-08-09T01:50:17.299Z,67.3
2022-08-09T01:51:23.215Z,67.4
2022-08-09T01:52:16.985Z,67.7
2022-08-09T01:53:21.568Z,67.8
2022-08-09T01:54:17.144Z,67.9
2022-08-09T01:55:17.416Z,67.9
2022-08-09T01:56:16.849Z,68.1
2022-08-09T01:57:20.676Z,68.1
2022-08-09T01:58:17.092Z,68.1
2022-08-09T01:59:16.547Z,68.3
2022-08-09T02:00:35.298Z,68.6
2022-08-09T02:01:18.879Z,68.7
2022-08-09T02:02:19.046Z,68.8
2022-08-09T02:03:16.532Z,69.0
2022-08-09T02:04:16.989Z,69.0
2022-08-09T02:05:16.404Z,69.1
2022-08-09T02:06:16.972Z,69.0
2022-08-09T02:08:34.986Z,69.2
2022-08-09T02:08:35.001Z,69.1
2022-08-09T02:09:17.369Z,69.3
2022-08-09T02:10:18.117Z,69.4
2022-08-09T02:11:17.820Z,69.6
2022-08-09T02:12:21.442Z,69.7
2022-08-09T02:13:17.320Z,69.7
2022-08-09T02:14:26.742Z,69.7
2022-08-09T02:15:17.368Z,69.8
2022-08-09T02:16:16.807Z,69.8
2022-08-09T02:17:29.578Z,69.9
2022-08-09T02:18:16.709Z,69.9
2022-08-09T02:19:17.506Z,69.9
2022-08-09T02:20:32.647Z,69.9
2022-08-09T02:21:22.618Z,70.1
2022-08-09T02:22:27.405Z,70.2
2022-08-09T02:23:17.331Z,70.4
2022-08-09T02:24:26.806Z,70.4
2022-08-09T02:25:19.513Z,70.4
2022-08-09T02:26:27.647Z,70.5
2022-08-09T02:27:18.864Z,70.5
2022-08-09T02:28:18.234Z,70.7
2022-08-09T02:29:16.661Z,70.6
2022-08-09T02:30:18.950Z,70.6
2022-08-09T02:31:18.787Z,70.8
2022-08-09T02:32:18.657Z,70.7
2022-08-09T02:33:18.584Z,70.7
2022-08-09T02:34:40.298Z,70.8
2022-08-09T02:35:18.717Z,71.1
2022-08-09T02:36:18.517Z,71.3
2022-08-09T02:37:17.923Z,71.6
2022-08-09T02:38:29.466Z,71.8
2022-08-09T02:39:33.836Z,71.8
2022-08-09T02:40:30.406Z,71.8
2022-08-09T02:41:17.031Z,72.0
2022-08-09T02:42:17.539Z,72.0
2022-08-09T02:43:21.372Z,72.0
2022-08-09T02:44:29.644Z,72.3
2022-08-09T02:45:17.027Z,72.2
2022-08-09T02:46:16.444Z,72.3
2022-08-09T02:47:16.885Z,72.2
2022-08-09T02:48:30.966Z,72.1
2022-08-09T02:49:17.055Z,72.1
2022-08-09T02:50:18.303Z,72.3
2022-08-09T02:51:16.867Z,72.4
2022-08-09T02:52:17.223Z,72.4
2022-08-09T02:53:26.899Z,72.3
2022-08-09T02:54:17.396Z,72.3
2022-08-09T02:55:21.541Z,72.3
2022-08-09T02:56:17.004Z,72.5
2022-08-09T02:57:23.949Z,72.4
2022-08-09T02:58:33.319Z,72.4
2022-08-09T02:59:36.245Z,72.5
2022-08-09T03:00:26.405Z,72.4
2022-08-09T03:01:29.201Z,72.6
2022-08-09T03:02:17.502Z,72.6
2022-08-09T03:03:37.404Z,72.7
2022-08-09T03:04:19.999Z,72.7
2022-08-09T03:05:16.998Z,72.9
2022-08-09T03:06:16.483Z,73.0
2022-08-09T03:07:16.946Z,73.1
2022-08-09T03:08:17.411Z,73.1
2022-08-09T03:09:17.783Z,73.1
2022-08-09T03:10:18.715Z,73.1
2022-08-09T03:11:30.271Z,73.1
2022-08-09T03:12:16.669Z,73.2
2022-08-09T03:13:17.084Z,73.3
2022-08-09T03:14:16.526Z,73.3
2022-08-09T03:15:17.005Z,73.2
2022-08-09T03:16:16.425Z,73.1
2022-08-09T03:17:27.502Z,73.1
2022-08-09T03:18:30.413Z,73.3
2022-08-09T03:19:53.162Z,73.3
2022-08-09T03:20:16.985Z,73.5
2022-08-09T03:21:17.283Z,73.6
2022-08-09T03:22:41.648Z,73.7
2022-08-09T03:23:24.818Z,73.7
2022-08-09T03:24:31.349Z,73.4
2022-08-09T03:25:57.148Z,72.8
2022-08-09T03:26:17.145Z,73.0
2022-08-09T03:27:17.303Z,73.2
2022-08-09T03:28:17.121Z,73.1
2022-08-09T03:29:23.426Z,73.2
2022-08-09T03:30:30.326Z,73.5
2022-08-09T03:31:23.516Z,73.5
2022-08-09T03:32:19.991Z,73.5
2022-08-09T03:33:19.582Z,73.6
2022-08-09T03:34:19.235Z,73.8
2022-08-09T03:35:44.562Z,73.4
2022-08-09T03:36:17.546Z,72.8
2022-08-09T03:37:55.079Z,73.0
2022-08-09T03:38:29.234Z,73.0
2022-08-09T03:39:17.048Z,73.1
2022-08-09T03:40:18.338Z,72.7
2022-08-09T03:41:18.766Z,72.7
2022-08-09T03:42:19.411Z,72.9
2022-08-09T03:43:16.684Z,73.2
2022-08-09T03:44:19.296Z,73.2
2022-08-09T03:46:03.554Z,73.2
2022-08-09T03:46:29.476Z,73.3
2022-08-09T03:47:16.863Z,73.4
2022-08-09T03:48:30.883Z,73.6
2022-08-09T03:49:21.308Z,73.7
2022-08-09T03:50:31.814Z,73.7
2022-08-09T03:51:44.317Z,73.8
2022-08-09T03:52:18.264Z,73.9
2022-08-09T03:53:20.761Z,74.0
2022-08-09T03:54:16.519Z,74.1
2022-08-09T03:55:17.777Z,74.1
2022-08-09T03:56:17.799Z,74.0
2022-08-09T03:57:21.074Z,74.0
2022-08-09T03:58:21.428Z,74.1
2022-08-09T03:59:27.602Z,74.2
2022-08-09T04:00:17.157Z,74.3
2022-08-09T04:01:20.113Z,74.3
2022-08-09T04:02:27.803Z,74.4
2022-08-09T04:03:35.653Z,74.4
2022-08-09T04:04:18.116Z,74.3
2022-08-09T04:05:28.232Z,74.4
2022-08-09T04:06:16.941Z,74.1
2022-08-09T04:07:17.389Z,74.3
2022-08-09T04:08:17.103Z,74.6
2022-08-09T04:09:41.532Z,74.7
2022-08-09T04:10:20.970Z,74.7
2022-08-09T04:11:17.292Z,74.8
2022-08-09T04:12:30.306Z,74.7
2022-08-09T04:13:19.611Z,74.7
2022-08-09T04:14:37.969Z,74.8
2022-08-09T04:15:29.873Z,74.9
2022-08-09T04:16:21.672Z,74.9
2022-08-09T04:17:17.206Z,74.9
2022-08-09T04:18:21.355Z,74.7
2022-08-09T04:19:30.213Z,74.6
2022-08-09T04:20:16.692Z,74.5
2022-08-09T04:21:17.486Z,74.4
2022-08-09T04:22:17.222Z,74.2
2022-08-09T04:23:17.803Z,74.2
2022-08-09T04:24:17.352Z,74.2
2022-08-09T04:25:19.057Z,73.8
2022-08-09T04:26:23.591Z,73.7
2022-08-09T04:27:22.471Z,73.6
2022-08-09T04:28:30.512Z,73.5
2022-08-09T04:29:16.429Z,73.6
2022-08-09T04:30:16.897Z,73.4
2022-08-09T04:31:17.485Z,73.5
2022-08-09T04:32:31.703Z,73.5
2022-08-09T04:33:16.968Z,73.2
2022-08-09T04:34:30.836Z,72.4
2022-08-09T04:35:17.228Z,72.5
2022-08-09T04:36:19.617Z,72.6
2022-08-09T04:37:19.121Z,72.6
2022-08-09T04:38:18.511Z,72.3
2022-08-09T04:39:17.833Z,72.4
2022-08-09T04:40:35.988Z,72.5
2022-08-09T04:41:17.609Z,72.4
2022-08-09T04:42:18.727Z,72.3
2022-08-09T04:43:17.838Z,71.9
2022-08-09T04:44:17.255Z,71.9
2022-08-09T04:45:20.824Z,71.9
2022-08-09T04:46:37.752Z,71.9
2022-08-09T04:47:16.668Z,71.8
2022-08-09T04:48:17.978Z,71.7
2022-08-09T04:49:30.553Z,71.7
2022-08-09T04:50:19.900Z,71.6
2022-08-09T04:51:20.391Z,71.5
2022-08-09T04:52:27.384Z,71.6
2022-08-09T04:53:17.138Z,71.2
2022-08-09T04:54:16.611Z,70.7
2022-08-09T04:55:19.697Z,70.6
2022-08-09T04:56:26.315Z,70.3
2022-08-09T04:57:25.045Z,70.2
2022-08-09T04:58:16.661Z,70.5
2022-08-09T04:59:21.159Z,70.6
2022-08-09T05:00:18.037Z,70.6
2022-08-09T05:01:19.117Z,70.4
2022-08-09T05:02:16.556Z,70.5
2022-08-09T05:03:34.763Z,70.3
2022-08-09T05:04:16.595Z,70.1
2022-08-09T05:05:31.546Z,69.9
2022-08-09T05:06:29.128Z,69.2
2022-08-09T05:07:20.099Z,69.1
2022-08-09T05:08:17.340Z,69.1
2022-08-09T05:09:16.788Z,68.5
2022-08-09T05:10:17.713Z,68.5
2022-08-09T05:11:17.166Z,68.5
2022-08-09T05:12:17.184Z,68.4
2022-08-09T05:13:16.605Z,68.2
2022-08-09T05:14:17.053Z,68.5
2022-08-09T05:15:38.880Z,68.4
2022-08-09T05:16:18.959Z,68.3
2022-08-09T05:18:37.286Z,68.2
2022-08-09T05:18:40.020Z,68.2
2022-08-09T05:19:24.279Z,68.0
2022-08-09T05:20:16.687Z,67.4
2022-08-09T05:21:24.970Z,67.3
2022-08-09T05:22:33.136Z,66.6
2022-08-09T05:23:51.388Z,66.7
2022-08-09T05:24:16.911Z,66.4
2022-08-09T05:25:18.693Z,66.1
2022-08-09T05:26:35.313Z,66.1
2022-08-09T05:27:17.348Z,65.8
2022-08-09T05:28:16.898Z,65.6
2022-08-09T05:29:24.014Z,65.3
2022-08-09T05:30:19.629Z,65.3
2022-08-09T05:31:37.234Z,64.9
2022-08-09T05:32:16.511Z,64.8
2022-08-09T05:33:16.974Z,65.0
2022-08-09T05:34:17.709Z,65.0
2022-08-09T05:35:17.209Z,64.5
2022-08-09T05:36:21.265Z,64.8
2022-08-09T05:37:17.237Z,64.6
2022-08-09T05:38:22.421Z,64.3
2022-08-09T05:39:30.105Z,63.9
2022-08-09T05:40:18.634Z,64.0
2022-08-09T05:41:18.057Z,64.1
2022-08-09T05:42:22.021Z,64.1
2022-08-09T05:43:17.278Z,63.9
2022-08-09T05:44:28.927Z,63.3
2022-08-09T05:45:16.800Z,63.6
2022-08-09T05:46:17.276Z,63.3
2022-08-09T05:47:16.734Z,62.5
2022-08-09T05:48:20.944Z,63.0
2022-08-09T05:50:05.864Z,62.7
2022-08-09T05:50:44.224Z,62.5
2022-08-09T05:51:30.477Z,62.3
2022-08-09T05:52:16.780Z,62.3
2022-08-09T05:53:31.997Z,62.3
2022-08-09T05:54:18.148Z,61.7
2022-08-09T05:55:21.739Z,62.0
2022-08-09T05:56:17.472Z,62.2
2022-08-09T05:57:19.406Z,62.2
2022-08-09T05:58:18.670Z,62.0
2022-08-09T05:59:17.091Z,61.5
2022-08-09T06:00:17.000Z,61.6
2022-08-09T06:01:19.648Z,60.4
2022-08-09T06:02:18.491Z,60.6
2022-08-09T06:03:20.277Z,61.1
2022-08-09T06:04:23.762Z,61.4
2022-08-09T06:05:17.020Z,60.6
2022-08-09T06:06:16.453Z,60.1
2022-08-09T06:07:22.159Z,60.6
2022-08-09T06:08:25.080Z,60.6
2022-08-09T06:09:41.041Z,60.0
2022-08-09T06:10:18.287Z,59.5
2022-08-09T06:11:17.917Z,59.5
2022-08-09T06:12:17.315Z,59.5
2022-08-09T06:13:20.955Z,58.8
2022-08-09T06:14:16.501Z,58.7
2022-08-09T06:15:16.947Z,58.3
2022-08-09T06:16:17.407Z,58.3
2022-08-09T06:17:17.236Z,58.5
2022-08-09T06:18:16.962Z,58.4
2022-08-09T06:19:20.968Z,57.9
2022-08-09T06:20:18.456Z,58.0
2022-08-09T06:21:16.875Z,57.4
2022-08-09T06:22:17.389Z,57.4
2022-08-09T06:23:16.836Z,57.2
2022-08-09T06:24:17.259Z,56.9
2022-08-09T06:25:16.669Z,56.5
2022-08-09T06:26:22.049Z,56.4
2022-08-09T06:27:18.193Z,56.5
2022-08-09T06:28:16.676Z,56.8
2022-08-09T06:29:21.554Z,56.5
2022-08-09T06:30:17.898Z,56.4
2022-08-09T06:31:30.918Z,56.1
2022-08-09T06:32:53.009Z,55.5
2022-08-09T06:33:35.239Z,55.3
2022-08-09T06:34:17.120Z,55.4
2022-08-09T06:35:16.801Z,55.4
2022-08-09T06:36:18.932Z,55.3
2022-08-09T06:37:18.192Z,55.3
2022-08-09T06:38:16.651Z,54.7
2022-08-09T06:39:17.188Z,54.3
2022-08-09T06:40:24.622Z,54.0
2022-08-09T06:41:20.373Z,54.1
2022-08-09T06:42:19.968Z,53.7
2022-08-09T06:43:17.421Z,54.1
2022-08-09T06:44:18.591Z,53.9
2022-08-09T06:46:04.626Z,53.8
2022-08-09T06:46:39.287Z,53.1
2022-08-09T06:47:18.587Z,53.0
2022-08-09T06:48:30.242Z,53.0
2022-08-09T06:49:45.103Z,52.4
2022-08-09T06:50:22.566Z,52.5
2022-08-09T06:51:17.016Z,51.8
2022-08-09T06:52:18.301Z,51.4
2022-08-09T06:53:16.930Z,50.8
2022-08-09T06:54:20.456Z,51.3
2022-08-09T06:55:16.902Z,50.4
2022-08-09T06:56:18.160Z,50.2
2022-08-09T06:57:16.577Z,49.8
2022-08-09T06:58:41.102Z,49.5
2022-08-09T07:00:48.007Z,49.1
2022-08-09T07:00:48.422Z,49.4
2022-08-09T07:01:24.105Z,49.2
2022-08-09T07:02:17.302Z,49.1
2022-08-09T07:03:16.796Z,49.1
2022-08-09T07:04:20.388Z,49.1
2022-08-09T07:05:17.203Z,49.1
2022-08-09T07:06:17.049Z,48.7
2022-08-09T07:07:59.186Z,47.8
2022-08-09T07:08:18.800Z,46.8
2022-08-09T07:09:53.782Z,46.7
2022-08-09T07:10:29.855Z,47.5
2022-08-09T07:11:25.754Z,46.4
2022-08-09T07:12:18.736Z,45.8
2022-08-09T07:13:29.579Z,45.5
2022-08-09T07:14:26.853Z,44.4
2022-08-09T07:15:53.426Z,44.4
2022-08-09T07:16:40.272Z,44.4
2022-08-09T07:17:16.657Z,44.9
2022-08-09T07:18:17.455Z,45.1
2022-08-09T07:19:23.906Z,44.2
2022-08-09T07:20:18.468Z,43.9
2022-08-09T07:21:18.864Z,44.2
2022-08-09T07:22:18.303Z,44.6
2022-08-09T07:23:19.889Z,44.7
2022-08-09T07:24:16.494Z,44.9
2022-08-09T07:25:16.493Z,45.2
2022-08-09T07:26:16.935Z,44.6
2022-08-09T07:27:33.746Z,44.7
2022-08-09T07:28:26.306Z,45.6
2022-08-09T07:29:17.643Z,44.9
2022-08-09T07:30:18.408Z,44.5
2022-08-09T07:31:17.018Z,43.7
2022-08-09T07:32:17.262Z,45.1
2022-08-09T07:33:16.988Z,44.4
2022-08-09T07:34:21.271Z,44.1
2022-08-09T07:35:19.445Z,43.8
2022-08-09T07:36:18.180Z,44.0
2022-08-09T07:37:16.615Z,44.3
2022-08-09T07:38:17.201Z,44.0
2022-08-09T07:39:40.692Z,44.1
2022-08-09T07:40:20.442Z,43.8
2022-08-09T07:41:16.900Z,43.3
2022-08-09T07:42:17.421Z,43.8
2022-08-09T07:43:17.432Z,43.7
2022-08-09T07:44:24.309Z,43.2
2022-08-09T07:45:38.539Z,42.1
2022-08-09T07:46:19.674Z,42.0
2022-08-09T07:47:17.172Z,42.0
2022-08-09T07:48:30.615Z,41.5
2022-08-09T07:49:17.074Z,41.5
2022-08-09T07:50:17.289Z,41.7
2022-08-09T07:52:04.022Z,41.9
2022-08-09T07:52:18.242Z,41.6
2022-08-09T07:53:36.375Z,41.2
2022-08-09T07:54:30.316Z,41.5
2022-08-09T07:55:16.462Z,41.2
2022-08-09T07:56:27.418Z,41.4
2022-08-09T07:57:16.982Z,41.2
2022-08-09T07:58:16.424Z,41.7
2022-08-09T07:59:34.087Z,41.6
2022-08-09T08:00:36.089Z,41.3
2022-08-09T08:01:21.785Z,41.3
2022-08-09T08:02:20.166Z,41.5
2022-08-09T08:03:18.166Z,41.4
2022-08-09T08:04:17.376Z,41.4
2022-08-09T08:05:19.136Z,39.9
2022-08-09T08:06:21.484Z,40.2
2022-08-09T08:08:06.406Z,40.1
2022-08-09T08:08:44.894Z,40.9
2022-08-09T08:09:35.315Z,41.0
2022-08-09T08:10:18.603Z,40.4
2022-08-09T08:12:08.763Z,40.4
2022-08-09T08:12:29.492Z,40.0
2022-08-09T08:13:20.358Z,39.7
2022-08-09T08:14:17.883Z,40.2
2022-08-09T08:15:17.711Z,40.0
2022-08-09T08:16:30.107Z,40.8
2022-08-09T08:17:35.699Z,40.4
2022-08-09T08:18:17.528Z,39.3
2022-08-09T08:19:17.790Z,39.3
2022-08-09T08:20:19.366Z,40.1
2022-08-09T08:21:17.190Z,39.9
2022-08-09T08:22:17.002Z,39.4
2022-08-09T08:23:18.007Z,38.8
2022-08-09T08:24:16.879Z,38.0
2022-08-09T08:25:19.540Z,40.4
2022-08-09T08:26:42.230Z,40.9
2022-08-09T08:27:18.874Z,39.6
2022-08-09T08:28:32.546Z,37.8
2022-08-09T08:29:27.516Z,37.8
2022-08-09T08:30:16.817Z,38.3
2022-08-09T08:31:17.321Z,37.8
2022-08-09T08:32:28.869Z,37.2
2022-08-09T08:33:24.774Z,36.8
2022-08-09T08:34:21.067Z,36.7
2022-08-09T08:35:18.941Z,37.5
2022-08-09T08:36:29.886Z,37.9
2022-08-09T08:37:17.994Z,38.5
2022-08-09T08:38:17.551Z,38.4
2022-08-09T08:39:17.611Z,38.7
2022-08-09T08:40:19.245Z,38.6
2022-08-09T08:41:16.761Z,38.6
2022-08-09T08:42:17.276Z,39.0
2022-08-09T08:43:16.708Z,38.9
2022-08-09T08:44:29.103Z,38.6
2022-08-09T08:45:16.980Z,38.5
2022-08-09T08:46:32.826Z,38.8
2022-08-09T08:47:17.788Z,38.9
2022-08-09T08:48:19.916Z,39.5
2022-08-09T08:49:19.273Z,41.0
2022-08-09T08:50:18.629Z,39.9
2022-08-09T08:51:18.404Z,38.9
2022-08-09T08:52:53.243Z,38.6
2022-08-09T08:53:22.297Z,38.5
2022-08-09T08:54:28.165Z,38.0
2022-08-09T08:55:24.617Z,37.5
2022-08-09T08:56:28.587Z,37.2
2022-08-09T08:57:17.604Z,36.6
2022-08-09T08:58:17.152Z,37.1
2022-08-09T08:59:20.666Z,37.4
2022-08-09T09:00:30.302Z,37.0
2022-08-09T09:01:35.562Z,36.5
2022-08-09T09:02:31.092Z,36.8
2022-08-09T09:03:33.343Z,36.3
2022-08-09T09:04:27.567Z,37.0
2022-08-09T09:05:26.218Z,36.8
2022-08-09T09:06:17.226Z,37.5
2022-08-09T09:07:16.676Z,37.7
2022-08-09T09:08:29.175Z,38.3
2022-08-09T09:09:41.068Z,38.4
2022-08-09T09:10:17.366Z,37.9
2022-08-09T09:11:20.135Z,37.4
2022-08-09T09:12:17.393Z,37.5
2022-08-09T09:13:19.077Z,37.0
2022-08-09T09:14:16.567Z,36.5
2022-08-09T09:15:28.945Z,36.9
2022-08-09T09:16:17.181Z,36.4
2022-08-09T09:17:16.879Z,36.7
2022-08-09T09:18:19.059Z,36.6
2022-08-09T09:19:40.591Z,37.6
2022-08-09T09:20:17.331Z,37.2
2022-08-09T09:21:26.530Z,38.4
2022-08-09T09:22:34.170Z,37.9
2022-08-09T09:23:16.674Z,37.4
2022-08-09T09:24:22.168Z,37.1
2022-08-09T09:26:00.714Z,36.9
2022-08-09T09:26:18.696Z,37.2
2022-08-09T09:28:03.437Z,36.6
2022-08-09T09:28:39.401Z,36.6
2022-08-09T09:29:19.220Z,36.7
2022-08-09T09:30:39.203Z,36.2
2022-08-09T09:31:54.264Z,36.0
2022-08-09T09:32:16.642Z,36.0
2022-08-09T09:33:18.109Z,36.0
2022-08-09T09:34:18.856Z,35.6
2022-08-09T09:35:17.957Z,35.8
2022-08-09T09:36:21.325Z,36.3
2022-08-09T09:37:16.518Z,36.8
2022-08-09T09:38:36.513Z,36.6
2022-08-09T09:39:20.501Z,36.7
2022-08-09T09:40:18.140Z,37.4
2022-08-09T09:41:17.407Z,37.7
2022-08-09T09:42:18.255Z,38.4
2022-08-09T09:43:17.431Z,38.2
2022-08-09T09:44:28.118Z,37.9
2022-08-09T09:45:29.427Z,37.5
2022-08-09T09:46:43.277Z,37.0
2022-08-09T09:47:21.787Z,36.6
2022-08-09T09:48:17.287Z,36.9
2022-08-09T09:49:16.759Z,37.0
2022-08-09T09:50:23.367Z,38.7
2022-08-09T09:51:37.097Z,38.4
2022-08-09T09:52:37.119Z,37.9
2022-08-09T09:53:20.261Z,37.5
2022-08-09T09:54:21.228Z,37.5
2022-08-09T09:55:32.719Z,37.5
2022-08-09T09:56:31.309Z,37.0
2022-08-09T09:58:01.841Z,37.3
2022-08-09T09:58:20.210Z,36.6
2022-08-09T09:59:19.109Z,36.7
2022-08-09T10:00:17.231Z,36.7
2022-08-09T10:01:30.388Z,37.3
2022-08-09T10:02:17.005Z,36.4
2022-08-09T10:03:16.505Z,36.5
2022-08-09T10:04:30.661Z,36.3
2022-08-09T10:06:00.616Z,35.7
2022-08-09T10:06:16.619Z,35.7
2022-08-09T10:07:24.177Z,35.2
2022-08-09T10:08:28.573Z,35.3
2022-08-09T10:09:23.950Z,35.4
2022-08-09T10:10:18.848Z,35.5
2022-08-09T10:11:54.084Z,34.5
2022-08-09T10:12:29.549Z,35.7
2022-08-09T10:13:42.993Z,36.2
2022-08-09T10:14:30.876Z,36.0
2022-08-09T10:15:50.636Z,35.2
2022-08-09T10:16:56.385Z,35.2
2022-08-09T10:17:39.066Z,34.9
2022-08-09T10:18:18.697Z,34.9
2022-08-09T10:19:17.119Z,34.4
2022-08-09T10:20:32.696Z,34.8
2022-08-09T10:21:17.288Z,34.6
2022-08-09T10:22:29.398Z,34.3
2022-08-09T10:23:21.316Z,34.5
2022-08-09T10:24:35.809Z,35.4
2022-08-09T10:25:21.746Z,36.0
2022-08-09T10:26:19.749Z,37.4
2022-08-09T10:27:26.183Z,37.0
2022-08-09T10:28:19.187Z,36.8
2022-08-09T10:29:38.090Z,36.6
2022-08-09T10:32:38.975Z,37.2
2022-08-09T10:33:30.169Z,37.2
2022-08-09T10:34:33.396Z,37.0
2022-08-09T10:35:19.812Z,37.5
2022-08-09T10:36:20.588Z,37.7
2022-08-09T10:37:17.693Z,37.6
2022-08-09T10:38:34.254Z,36.9
2022-08-09T10:39:19.767Z,36.3
2022-08-09T10:40:32.426Z,36.7
2022-08-09T10:41:17.996Z,37.2
2022-08-09T10:42:18.571Z,36.7
2022-08-09T10:43:19.738Z,36.7
2022-08-09T10:44:17.015Z,36.5
2022-08-09T10:45:17.094Z,37.1
2022-08-09T10:46:25.437Z,37.0
2022-08-09T10:48:13.051Z,36.2
2022-08-09T10:48:30.350Z,35.8
2022-08-09T10:49:19.957Z,35.4
2022-08-09T10:50:31.506Z,35.7
2022-08-09T10:51:18.723Z,36.5
2022-08-09T10:52:20.764Z,36.4
2022-08-09T10:53:18.504Z,35.6
2022-08-09T10:54:16.965Z,35.6
2022-08-09T10:55:17.432Z,35.3
2022-08-09T10:56:23.225Z,35.3
2022-08-09T10:57:16.706Z,35.2
2022-08-09T10:58:25.697Z,34.6
2022-08-09T10:59:23.480Z,34.8
2022-08-09T11:00:16.609Z,35.1
2022-08-09T11:03:02.343Z,36.1
2022-08-09T11:03:07.473Z,35.4
2022-08-09T11:03:47.221Z,35.9
2022-08-09T11:04:31.081Z,35.6
2022-08-09T11:05:29.880Z,35.1
2022-08-09T11:06:16.947Z,34.9
2022-08-09T11:07:22.167Z,34.8
2022-08-09T11:08:17.370Z,35.2
2022-08-09T11:09:17.627Z,35.9
2022-08-09T11:10:17.078Z,35.3
2022-08-09T11:11:16.530Z,35.4
2022-08-09T11:12:17.702Z,35.2
2022-08-09T11:13:49.588Z,34.9
2022-08-09T11:14:28.855Z,34.8
2022-08-09T11:15:19.287Z,34.1
2022-08-09T11:16:33.766Z,33.6
2022-08-09T11:17:19.647Z,34.0
2022-08-09T11:18:17.405Z,35.2
2022-08-09T11:19:18.851Z,34.9
2022-08-09T11:20:23.445Z,35.1
2022-08-09T11:21:17.046Z,35.2
2022-08-09T11:22:25.732Z,35.7
2022-08-09T11:23:29.876Z,35.7
2022-08-09T11:24:16.693Z,35.8
2022-08-09T11:25:17.625Z,36.0
2022-08-09T11:26:21.156Z,35.5
2022-08-09T11:27:53.030Z,35.2
2022-08-09T11:28:30.988Z,35.3
2022-08-09T11:30:01.184Z,35.3
2022-08-09T11:30:33.160Z,35.1
2022-08-09T11:31:33.695Z,35.7
2022-08-09T11:32:17.017Z,34.6
2022-08-09T11:33:16.468Z,34.2
2022-08-09T11:34:17.256Z,33.9
2022-08-09T11:35:17.316Z,33.5
2022-08-09T11:36:30.611Z,33.7
2022-08-09T11:37:18.659Z,36.2
2022-08-09T11:38:17.245Z,36.1
2022-08-09T11:39:17.173Z,37.4
2022-08-09T11:40:18.194Z,36.2
2022-08-09T11:41:16.657Z,35.7
2022-08-09T11:42:17.006Z,36.0
2022-08-09T11:43:16.825Z,36.0
2022-08-09T11:44:17.621Z,35.4
2022-08-09T11:45:17.706Z,36.3
2022-08-09T11:46:33.072Z,36.2
2022-08-09T11:47:16.966Z,36.3
2022-08-09T11:48:27.221Z,36.4
2022-08-09T11:49:17.289Z,36.0
2022-08-09T11:50:52.785Z,36.3
2022-08-09T11:52:49.786Z,37.0
2022-08-09T11:52:54.440Z,36.9
2022-08-09T11:53:58.157Z,37.1
2022-08-09T11:54:29.909Z,36.9
2022-08-09T11:55:34.824Z,37.4
2022-08-09T11:56:19.645Z,37.7
2022-08-09T11:57:47.189Z,38.3
2022-08-09T11:58:19.821Z,39.3
2022-08-09T11:59:17.932Z,39.4
2022-08-09T12:00:24.915Z,39.5
2022-08-09T12:01:37.965Z,40.1
2022-08-09T12:02:34.995Z,40.6
2022-08-09T12:03:41.010Z,40.5
2022-08-09T12:04:32.590Z,40.1
2022-08-09T12:05:22.813Z,39.9
2022-08-09T12:06:16.643Z,40.0
2022-08-09T12:07:18.596Z,40.4
2022-08-09T12:08:22.243Z,40.6
2022-08-09T12:09:21.252Z,40.2
2022-08-09T12:10:38.204Z,40.4
2022-08-09T12:11:18.488Z,40.5
2022-08-09T12:12:28.928Z,41.0
2022-08-09T12:14:08.708Z,41.2
2022-08-09T12:14:36.589Z,40.8
2022-08-09T12:15:48.491Z,41.2
2022-08-09T12:16:30.943Z,40.9
2022-08-09T12:17:34.845Z,40.0
2022-08-09T12:18:30.408Z,40.4
2022-08-09T12:19:16.853Z,40.7
2022-08-09T12:20:22.760Z,40.7
2022-08-09T12:21:32.665Z,40.9
2022-08-09T12:22:19.067Z,41.2
2022-08-09T12:23:47.638Z,41.3
2022-08-09T12:24:17.584Z,41.4
2022-08-09T12:25:17.032Z,41.2
2022-08-09T12:26:26.634Z,41.0
2022-08-09T12:29:00.428Z,40.9
2022-08-09T12:29:00.848Z,41.2
2022-08-09T12:29:33.875Z,40.9
2022-08-09T12:30:35.266Z,41.0
2022-08-09T12:31:31.338Z,41.1
2022-08-09T12:32:17.114Z,41.4
2022-08-09T12:33:16.584Z,41.5
2022-08-09T12:34:17.047Z,41.4
2022-08-09T12:35:22.204Z,41.5
2022-08-09T12:36:31.592Z,41.2
2022-08-09T12:37:29.173Z,41.7
2022-08-09T12:38:29.486Z,41.8
2022-08-09T12:39:17.384Z,41.6
2022-08-09T12:40:17.011Z,41.9
2022-08-09T12:41:16.448Z,41.5
2022-08-09T12:42:17.048Z,41.5
2022-08-09T12:43:16.464Z,41.6
2022-08-09T12:44:24.798Z,41.6
2022-08-09T12:45:33.019Z,41.8
2022-08-09T12:46:16.836Z,41.6
2022-08-09T12:47:23.290Z,41.3
2022-08-09T12:48:32.964Z,41.3
2022-08-09T12:49:16.836Z,41.5
2022-08-09T12:50:23.370Z,41.7
2022-08-09T12:51:30.534Z,41.6
2022-08-09T12:52:19.584Z,41.4
2022-08-09T12:53:21.034Z,41.5
2022-08-09T12:54:17.247Z,41.6
2022-08-09T12:56:13.187Z,41.6
2022-08-09T12:56:37.174Z,41.8
2022-08-09T12:57:16.689Z,41.3
2022-08-09T12:58:28.540Z,41.3
2022-08-09T12:59:17.093Z,41.5
2022-08-09T13:00:16.533Z,41.2
2022-08-09T13:01:20.317Z,41.2
2022-08-09T13:02:20.049Z,41.5
2022-08-09T13:03:52.861Z,41.4
2022-08-09T13:04:33.377Z,41.5
2022-08-09T13:05:17.440Z,41.6
2022-08-09T13:06:21.875Z,41.7
2022-08-09T13:07:28.531Z,41.6
2022-08-09T13:08:35.528Z,41.6
2022-08-09T13:09:16.861Z,41.4
2022-08-09T13:10:17.446Z,41.6
2022-08-09T13:11:26.452Z,41.6
2022-08-09T13:12:19.967Z,41.1
2022-08-09T13:13:16.611Z,41.3
2022-08-09T13:14:38.399Z,41.5
2022-08-09T13:15:18.743Z,41.5
2022-08-09T13:16:17.864Z,41.8
2022-08-09T13:17:44.647Z,41.2
2022-08-09T13:18:17.857Z,41.2
2022-08-09T13:19:18.574Z,41.5
2022-08-09T13:20:23.897Z,41.0